createdAt,value
2022-11-29T00:03:00.570Z,15.80
2022-11-29T00:06:07.827Z,14.07
2022-11-29T00:09:12.610Z,12.63
2022-11-29T00:12:14.328Z,13.20
2022-11-29T00:15:16.030Z,15.90
2022-11-29T00:18:17.618Z,13.90
2022-11-29T00:21:19.233Z,14.50
2022-11-29T00:24:21.183Z,15.97
2022-11-29T00:27:22.827Z,13.87
2022-11-29T00:30:27.342Z,15.23
2022-11-29T00:33:29.216Z,12.37
2022-11-29T00:36:31.082Z,13.20
2022-11-29T00:39:32.784Z,13.60
2022-11-29T00:42:34.697Z,12.13
2022-11-29T00:45:36.421Z,12.00
2022-11-29T00:48:38.580Z,12.73
2022-11-29T00:51:40.209Z,12.77
2022-11-29T00:54:42.176Z,14.33
2022-11-29T00:57:44.120Z,12.13
2022-11-29T01:00:46.128Z,12.80
2022-11-29T01:03:48.398Z,13.33
2022-11-29T01:06:53.295Z,13.87
2022-11-29T01:09:54.914Z,16.03
2022-11-29T01:12:56.538Z,14.60
2022-11-29T01:15:58.768Z,17.13
2022-11-29T01:19:00.536Z,15.43
2022-11-29T01:22:02.196Z,15.33
2022-11-29T01:25:05.452Z,14.87
2022-11-29T01:28:07.089Z,16.33
2022-11-29T01:31:11.213Z,15.13
2022-11-29T01:34:12.896Z,13.40
2022-11-29T01:37:14.520Z,11.10
2022-11-29T01:40:16.255Z,12.13
2022-11-29T01:43:18.681Z,12.10
2022-11-29T01:46:20.457Z,11.60
2022-11-29T01:49:33.832Z,11.57
2022-11-29T01:52:35.708Z,11.97
2022-11-29T01:55:40.400Z,12.20
2022-11-29T01:58:44.876Z,10.93
2022-11-29T02:01:46.618Z,12.03
2022-11-29T02:04:49.412Z,12.97
2022-11-29T02:07:54.884Z,10.60
2022-11-29T02:11:12.753Z,12.80
2022-11-29T02:14:22.795Z,11.60
2022-11-29T02:17:27.423Z,12.13
2022-11-29T02:20:39.992Z,11.83
2022-11-29T02:23:44.446Z,12.43
2022-11-29T02:26:54.965Z,13.47
2022-11-29T02:29:56.672Z,11.37
2022-11-29T02:33:10.792Z,13.10
2022-11-29T02:36:31.289Z,11.77
2022-11-29T02:39:45.672Z,15.53
2022-11-29T02:43:24.820Z,14.77
2022-11-29T02:46:38.486Z,14.07
2022-11-29T02:50:24.362Z,14.13
2022-11-29T02:53:49.771Z,15.07
2022-11-29T02:57:13.170Z,14.97
2022-11-29T03:00:24.866Z,16.20
2022-11-29T03:03:58.061Z,16.60
2022-11-29T03:07:25.686Z,14.33
2022-11-29T03:10:39.389Z,15.13
2022-11-29T03:14:07.475Z,18.50
2022-11-29T03:17:30.862Z,17.27
2022-11-29T03:20:38.601Z,16.43
2022-11-29T03:24:11.410Z,15.73
2022-11-29T03:27:21.011Z,14.80
2022-11-29T03:30:22.940Z,15.50
2022-11-29T03:33:59.001Z,16.07
2022-11-29T03:37:25.112Z,17.23
2022-11-29T03:40:40.108Z,16.27
2022-11-29T03:44:22.520Z,15.73
2022-11-29T03:47:30.696Z,16.57
2022-11-29T03:50:41.296Z,16.10
2022-11-29T03:53:55.328Z,15.37
2022-11-29T03:56:57.329Z,14.13
2022-11-29T04:00:07.263Z,16.27
2022-11-29T04:03:32.134Z,14.33
2022-11-29T04:07:01.767Z,15.20
2022-11-29T04:10:20.363Z,13.53
2022-11-29T04:13:35.433Z,13.80
2022-11-29T04:17:16.885Z,13.27
2022-11-29T04:20:55.368Z,16.17
2022-11-29T04:24:09.001Z,15.20
2022-11-29T04:27:36.445Z,13.30
2022-11-29T04:31:12.225Z,13.27
2022-11-29T04:34:44.109Z,20.33
2022-11-29T04:38:03.243Z,15.90
2022-11-29T04:41:20.082Z,16.37
2022-11-29T04:44:34.183Z,14.37
2022-11-29T04:48:13.702Z,16.50
2022-11-29T04:51:58.250Z,14.03
2022-11-29T04:55:33.039Z,12.27
2022-11-29T04:58:59.320Z,11.93
2022-11-29T05:02:10.118Z,13.23
2022-11-29T05:05:34.938Z,12.00
2022-11-29T05:08:51.893Z,11.53
2022-11-29T05:12:22.943Z,11.57
2022-11-29T05:15:36.617Z,14.67
2022-11-29T05:19:20.274Z,16.07
2022-11-29T05:22:29.048Z,12.43
2022-11-29T05:25:55.690Z,16.03
2022-11-29T05:29:00.014Z,17.70
2022-11-29T05:32:32.544Z,16.53
2022-11-29T05:35:43.362Z,14.87
2022-11-29T05:39:14.547Z,24.33
2022-11-29T05:42:37.946Z,21.97
2022-11-29T05:45:56.896Z,19.37
2022-11-29T05:49:17.517Z,16.50
2022-11-29T05:52:44.758Z,20.47
2022-11-29T05:56:02.565Z,18.00
2022-11-29T05:59:09.658Z,16.70
2022-11-29T06:02:26.914Z,18.33
2022-11-29T06:05:47.740Z,18.33
2022-11-29T06:08:59.902Z,20.40
2022-11-29T06:12:16.926Z,16.60
2022-11-29T06:15:30.032Z,17.90
2022-11-29T06:18:42.177Z,23.13
2022-11-29T06:22:17.009Z,19.50
2022-11-29T06:25:44.260Z,16.50
2022-11-29T06:28:58.103Z,14.57
2022-11-29T06:32:40.151Z,15.53
2022-11-29T06:36:07.287Z,16.20
2022-11-29T06:39:10.707Z,14.23
2022-11-29T06:42:12.445Z,14.60
2022-11-29T06:45:15.322Z,18.00
2022-11-29T06:48:25.738Z,13.87
2022-11-29T06:51:42.756Z,16.53
2022-11-29T06:55:12.311Z,15.50
2022-11-29T06:58:48.907Z,16.47
2022-11-29T07:02:00.916Z,16.23
2022-11-29T07:05:25.902Z,12.83
2022-11-29T07:08:27.856Z,13.27
2022-11-29T07:11:29.824Z,12.97
2022-11-29T07:14:31.657Z,13.03
2022-11-29T07:17:37.200Z,16.53
2022-11-29T07:21:14.802Z,14.07
2022-11-29T07:24:31.342Z,15.80
2022-11-29T07:28:06.641Z,17.77
2022-11-29T07:31:46.010Z,18.83
2022-11-29T07:35:01.469Z,14.30
2022-11-29T07:38:44.865Z,16.90
2022-11-29T07:42:01.327Z,15.13
2022-11-29T07:45:20.941Z,16.53
2022-11-29T07:48:22.622Z,20.83
2022-11-29T07:51:25.057Z,15.97
2022-11-29T07:54:26.764Z,15.73
2022-11-29T07:57:28.415Z,15.40
2022-11-29T08:00:30.056Z,25.63
2022-11-29T08:03:32.941Z,19.40
2022-11-29T08:06:36.203Z,19.47
2022-11-29T08:09:37.926Z,19.00
2022-11-29T08:12:45.046Z,17.90
2022-11-29T08:15:47.955Z,22.47
2022-11-29T08:18:53.794Z,17.20
2022-11-29T08:21:55.512Z,15.20
2022-11-29T08:24:58.022Z,16.97
2022-11-29T08:28:18.797Z,19.47
2022-11-29T08:31:21.223Z,18.03
2022-11-29T08:34:24.581Z,18.50
2022-11-29T08:37:26.202Z,21.17
2022-11-29T08:40:31.193Z,32.07
2022-11-29T08:43:33.611Z,19.87
2022-11-29T08:46:53.705Z,16.13
2022-11-29T08:50:01.287Z,18.40
2022-11-29T08:53:21.464Z,15.30
2022-11-29T08:57:10.080Z,14.37
2022-11-29T08:59:44.839Z,14.87
2022-11-29T09:02:48.546Z,10.47
2022-11-29T09:05:50.731Z,12.87
2022-11-29T09:08:56.215Z,16.03
2022-11-29T09:11:57.876Z,19.57
2022-11-29T09:15:04.367Z,19.00
2022-11-29T09:18:06.285Z,20.17
2022-11-29T09:21:17.479Z,16.50
2022-11-29T09:24:20.192Z,16.67
2022-11-29T09:27:21.874Z,25.57
2022-11-29T09:30:23.981Z,18.40
2022-11-29T09:33:25.753Z,23.63
2022-11-29T09:36:29.556Z,21.07
2022-11-29T09:39:31.216Z,20.83
2022-11-29T09:42:57.844Z,22.47
2022-11-29T09:46:22.470Z,23.33
2022-11-29T09:49:39.711Z,24.77
2022-11-29T09:53:18.098Z,22.53
2022-11-29T09:56:42.338Z,18.87
2022-11-29T09:59:49.662Z,19.90
2022-11-29T10:02:59.323Z,18.53
2022-11-29T10:06:23.875Z,16.70
2022-11-29T10:10:12.920Z,17.10
2022-11-29T10:13:31.784Z,17.23
2022-11-29T10:16:49.464Z,18.83
2022-11-29T10:19:59.126Z,16.77
2022-11-29T10:23:42.104Z,15.50
2022-11-29T10:26:44.106Z,23.20
2022-11-29T10:29:50.169Z,21.33
2022-11-29T10:32:57.620Z,18.40
2022-11-29T10:36:04.139Z,19.07
2022-11-29T10:39:28.811Z,18.30
2022-11-29T10:42:49.251Z,16.27
2022-11-29T10:45:55.991Z,17.50
2022-11-29T10:49:04.695Z,17.53
2022-11-29T10:52:19.394Z,19.20
2022-11-29T10:55:22.739Z,18.20
2022-11-29T10:58:28.569Z,18.47
2022-11-29T11:01:33.616Z,17.43
2022-11-29T11:04:43.104Z,16.53
2022-11-29T11:07:47.281Z,20.03
2022-11-29T11:10:58.636Z,20.50
2022-11-29T11:14:06.636Z,16.53
2022-11-29T11:17:32.596Z,18.80
2022-11-29T11:20:39.691Z,17.90
2022-11-29T11:23:59.069Z,18.23
2022-11-29T11:27:01.486Z,21.47
2022-11-29T11:30:06.708Z,22.07
2022-11-29T11:33:19.239Z,20.97
2022-11-29T11:36:20.868Z,23.10
2022-11-29T11:39:23.604Z,22.37
2022-11-29T11:42:40.319Z,17.63
2022-11-29T11:45:42.372Z,15.27
2022-11-29T11:48:44.065Z,16.07
2022-11-29T11:51:45.803Z,14.43
2022-11-29T11:54:55.054Z,14.00
2022-11-29T11:58:16.495Z,14.87
2022-11-29T12:01:30.701Z,15.70
2022-11-29T12:04:35.681Z,17.90
2022-11-29T12:11:16.039Z,19.57
2022-11-29T12:14:28.427Z,16.63
2022-11-29T12:17:46.131Z,20.33
2022-11-29T12:21:17.496Z,18.87
2022-11-29T12:24:29.595Z,19.73
2022-11-29T12:27:31.873Z,15.30
2022-11-29T12:30:35.279Z,16.53
2022-11-29T12:33:55.466Z,14.40
2022-11-29T12:37:02.508Z,13.43
2022-11-29T12:40:39.633Z,13.60
2022-11-29T12:43:59.986Z,11.77
2022-11-29T12:47:38.164Z,13.13
2022-11-29T12:51:27.263Z,14.37
2022-11-29T12:54:40.979Z,16.50
2022-11-29T12:57:53.327Z,16.77
2022-11-29T13:01:21.761Z,16.37
2022-11-29T13:04:50.927Z,16.30
2022-11-29T13:08:18.403Z,15.40
2022-11-29T13:11:29.126Z,16.57
2022-11-29T13:14:49.536Z,16.73
2022-11-29T13:18:13.064Z,15.57
2022-11-29T13:21:19.213Z,17.13
2022-11-29T13:24:45.494Z,15.40
2022-11-29T13:28:05.078Z,15.10
2022-11-29T13:31:12.161Z,14.87
2022-11-29T13:34:32.946Z,14.63
2022-11-29T13:37:57.720Z,13.67
2022-11-29T13:41:22.887Z,14.20
2022-11-29T13:44:39.264Z,15.83
2022-11-29T13:48:38.902Z,14.63
2022-11-29T13:51:41.317Z,13.00
2022-11-29T13:54:43.129Z,14.43
2022-11-29T13:58:20.426Z,14.30
2022-11-29T14:01:51.018Z,14.00
2022-11-29T14:04:52.988Z,16.77
2022-11-29T14:08:27.000Z,14.40
2022-11-29T14:12:06.042Z,19.27
2022-11-29T14:15:21.698Z,21.17
2022-11-29T14:18:40.573Z,18.03
2022-11-29T14:22:06.409Z,18.80
2022-11-29T14:25:49.791Z,20.03
2022-11-29T14:28:44.819Z,21.67
2022-11-29T14:31:53.776Z,19.67
2022-11-29T14:35:12.416Z,18.87
2022-11-29T14:38:30.679Z,17.20
2022-11-29T14:41:55.535Z,18.40
2022-11-29T14:45:01.067Z,18.13
2022-11-29T14:48:03.243Z,19.03
2022-11-29T14:51:17.675Z,19.10
2022-11-29T14:54:20.449Z,17.30
2022-11-29T14:57:46.996Z,17.57
2022-11-29T15:00:48.581Z,19.10
2022-11-29T15:03:50.990Z,19.63
2022-11-29T15:06:56.580Z,21.70
2022-11-29T15:10:02.623Z,20.50
2022-11-29T15:13:04.892Z,18.90
2022-11-29T15:16:31.034Z,20.77
2022-11-29T15:20:00.997Z,20.73
2022-11-29T15:23:07.171Z,18.40
2022-11-29T15:26:18.650Z,18.43
2022-11-29T15:29:31.238Z,19.13
2022-11-29T15:32:33.305Z,20.37
2022-11-29T15:35:36.224Z,19.57
2022-11-29T15:38:43.859Z,19.87
2022-11-29T15:41:45.514Z,19.53
2022-11-29T15:44:48.770Z,18.90
2022-11-29T15:47:50.768Z,21.43
2022-11-29T15:51:03.730Z,20.67
2022-11-29T15:54:21.812Z,20.07
2022-11-29T15:57:35.552Z,22.53
2022-11-29T16:00:37.448Z,20.33
2022-11-29T16:03:43.353Z,21.03
2022-11-29T16:06:46.667Z,17.33
2022-11-29T16:10:04.679Z,20.83
2022-11-29T16:13:25.884Z,21.63
2022-11-29T16:16:28.782Z,19.23
2022-11-29T16:19:36.860Z,19.87
2022-11-29T16:22:39.980Z,18.93
2022-11-29T16:26:12.304Z,19.80
2022-11-29T16:29:21.575Z,22.10
2022-11-29T16:32:32.216Z,20.87
2022-11-29T16:35:34.861Z,20.27
2022-11-29T16:38:36.707Z,20.57
2022-11-29T16:41:39.152Z,21.53
2022-11-29T16:44:41.296Z,21.00
2022-11-29T16:47:47.491Z,20.87
2022-11-29T16:51:08.000Z,21.47
2022-11-29T16:54:22.141Z,18.77
2022-11-29T16:57:24.803Z,18.57
2022-11-29T17:00:33.420Z,20.60
2022-11-29T17:03:35.020Z,19.90
2022-11-29T17:06:39.972Z,21.17
2022-11-29T17:09:42.061Z,21.20
2022-11-29T17:12:48.192Z,23.87
2022-11-29T17:15:50.151Z,24.53
2022-11-29T17:18:56.974Z,21.80
2022-11-29T17:21:58.923Z,21.37
2022-11-29T17:25:00.601Z,21.07
2022-11-29T17:28:02.795Z,21.60
2022-11-29T17:31:21.950Z,21.17
2022-11-29T17:34:23.619Z,25.00
2022-11-29T17:37:25.466Z,22.60
2022-11-29T17:40:27.121Z,25.20
2022-11-29T17:43:31.112Z,22.63
2022-11-29T17:46:35.807Z,23.43
2022-11-29T17:49:37.416Z,26.03
2022-11-29T17:52:39.782Z,24.03
2022-11-29T17:55:44.462Z,23.90
2022-11-29T17:58:46.208Z,23.80
2022-11-29T18:01:48.075Z,23.60
2022-11-29T18:04:49.819Z,23.83
2022-11-29T18:08:04.160Z,21.07
2022-11-29T18:11:11.281Z,22.70
2022-11-29T18:14:15.319Z,22.67
2022-11-29T18:17:17.045Z,23.80
2022-11-29T18:20:18.674Z,25.30
2022-11-29T18:23:20.299Z,24.40
2022-11-29T18:26:25.935Z,22.20
2022-11-29T18:29:38.932Z,22.40
2022-11-29T18:32:41.050Z,22.07
2022-11-29T18:35:42.739Z,21.83
2022-11-29T18:38:47.914Z,23.43
2022-11-29T18:41:50.917Z,21.87
2022-11-29T18:44:57.423Z,24.70
2022-11-29T18:48:00.520Z,20.60
2022-11-29T18:51:04.536Z,21.83
2022-11-29T18:54:06.698Z,23.67
2022-11-29T18:57:08.420Z,28.23
2022-11-29T19:00:10.792Z,27.73
2022-11-29T19:03:12.703Z,24.37
2022-11-29T19:06:16.398Z,24.97
2022-11-29T19:09:23.815Z,26.97
2022-11-29T19:12:25.910Z,29.23
2022-11-29T19:15:27.599Z,26.13
2022-11-29T19:18:29.644Z,24.47
2022-11-29T19:21:34.196Z,27.20
2022-11-29T19:24:35.911Z,24.23
2022-11-29T19:27:43.253Z,22.37
2022-11-29T19:30:45.060Z,26.50
2022-11-29T19:33:47.273Z,24.20
2022-11-29T19:36:48.915Z,22.50
2022-11-29T19:39:51.642Z,25.73
2022-11-29T19:42:53.287Z,24.03
2022-11-29T19:45:58.757Z,22.70
2022-11-29T19:49:01.120Z,22.20
2022-11-29T19:52:03.005Z,20.23
2022-11-29T19:55:04.951Z,21.97
2022-11-29T19:58:09.436Z,23.00
2022-11-29T20:01:13.904Z,23.67
2022-11-29T20:04:16.798Z,23.47
2022-11-29T20:07:18.508Z,23.43
2022-11-29T20:10:20.402Z,24.53
2022-11-29T20:13:22.438Z,26.73
2022-11-29T20:16:24.874Z,38.10
2022-11-29T20:19:26.516Z,44.67
2022-11-29T20:22:28.215Z,35.27
2022-11-29T20:25:30.355Z,34.33
2022-11-29T20:28:32.046Z,31.90
2022-11-29T20:31:35.032Z,29.30
2022-11-29T20:34:38.398Z,26.07
2022-11-29T20:38:17.675Z,26.10
2022-11-29T20:41:30.149Z,25.47
2022-11-29T20:44:44.188Z,22.40
2022-11-29T20:47:55.439Z,26.33
2022-11-29T20:51:00.434Z,24.10
2022-11-29T20:54:02.058Z,21.20
2022-11-29T20:57:03.743Z,20.00
2022-11-29T21:00:11.280Z,23.10
2022-11-29T21:03:16.864Z,21.93
2022-11-29T21:06:18.619Z,22.70
2022-11-29T21:09:20.337Z,24.17
2022-11-29T21:12:22.271Z,22.17
2022-11-29T21:15:24.202Z,23.23
2022-11-29T21:18:28.599Z,24.67
2022-11-29T21:21:54.119Z,23.30
2022-11-29T21:25:01.836Z,24.23
2022-11-29T21:28:10.694Z,22.57
2022-11-29T21:31:14.737Z,25.20
2022-11-29T21:34:16.363Z,22.80
2022-11-29T21:37:21.572Z,24.57
2022-11-29T21:40:32.056Z,22.10
2022-11-29T21:44:04.496Z,24.50
2022-11-29T21:46:55.388Z,24.97
2022-11-29T21:50:00.047Z,20.23
2022-11-29T21:53:02.149Z,21.43
2022-11-29T21:56:09.735Z,23.47
2022-11-29T21:59:11.390Z,24.20
2022-11-29T22:02:13.088Z,23.67
2022-11-29T22:05:16.097Z,23.10
2022-11-29T22:08:18.148Z,20.60
2022-11-29T22:11:31.367Z,24.23
2022-11-29T22:14:35.873Z,21.77
2022-11-29T22:17:37.507Z,22.20
2022-11-29T22:20:39.176Z,25.47
2022-11-29T22:23:40.861Z,22.00
2022-11-29T22:26:43.635Z,24.20
2022-11-29T22:29:48.755Z,23.13
2022-11-29T22:32:50.426Z,23.70
2022-11-29T22:35:52.079Z,22.50
2022-11-29T22:38:53.967Z,22.30
2022-11-29T22:42:00.879Z,23.27
2022-11-29T22:45:04.055Z,23.57
2022-11-29T22:48:07.762Z,23.50
2022-11-29T22:51:15.201Z,22.00
2022-11-29T22:54:17.374Z,25.90
2022-11-29T22:57:19.005Z,22.67
2022-11-29T23:00:23.588Z,23.40
2022-11-29T23:03:25.228Z,25.50
2022-11-29T23:06:32.324Z,22.60
2022-11-29T23:09:34.043Z,22.37
2022-11-29T23:12:35.671Z,21.67
2022-11-29T23:15:37.272Z,18.77
2022-11-29T23:18:39.887Z,21.63
2022-11-29T23:21:41.738Z,22.80
2022-11-29T23:24:43.431Z,21.27
2022-11-29T23:27:45.180Z,24.83
2022-11-29T23:30:46.900Z,21.47
2022-11-29T23:33:49.191Z,22.33
2022-11-29T23:36:53.090Z,23.10
2022-11-29T23:39:55.046Z,22.90
2022-11-29T23:42:56.665Z,25.50
2022-11-29T23:45:58.870Z,24.90
2022-11-29T23:49:00.540Z,26.10
2022-11-29T23:52:14.471Z,23.83
2022-11-29T23:55:16.970Z,19.87
2022-11-29T23:58:18.820Z,22.57
